Airfield :
LOGIN :

Register | Disclaimer

   EN    FR    IT 

 










Legend :    VFR   Marginal VFR   IFR   Intensive IFR   Very Intensive IFR
Visi :
Ceiling :
>= 8 km
>= 3000ft
5 to 8 km
1000 to 3000 ft
1500m to 5 km
500 to 1000 ft
800 to 1500m
200 to 500 ft
< 800m
< 200 ft
Symbols :   Thunderstorms  Fog  Heavy snow  Heavy precipitations  Wind > 20 kt
SIGMETs :     Misc.  Thunderstorms  Icing  Turbulence  Mountain Waves  Volcanic Ashes






- Airport Elevation : 13 ft
- IATA code : LYX


EGMD - Lydd

CURRENT METAR :
  • 212320Z AUTO 23012KT 9000 NCD 10/10 Q0999

EXPIRED METARs :
  • 212250Z AUTO 24014KT 9000 FEW011/// 10/10 Q1000
  • 212220Z AUTO 23014KT 9000 NCD 10/10 Q1000
  • 212150Z AUTO 24011KT 9999 NCD 11/10 Q1000
  • 212120Z AUTO 24011KT 8000 NCD 10/10 Q1000
  • 212050Z AUTO 24015KT 8000 FEW003/// 10/10 Q1000
  • 212020Z AUTO 23015KT 8000 OVC006/// 11/10 Q1000
  • 211950Z AUTO 23017KT 9000 SCT003/// OVC007/// 11/10 Q1000
  • 211920Z AUTO 24018KT 7000 OVC003/// 11/11 Q1001
  • 211850Z AUTO 24019KT 7000 OVC003/// 11/11 Q1000
  • 211820Z 23020KT 4500 -DZ OVC002 11/10 Q1001

TAF TAF EGMD
Valid from the 22 at 00:00 until the 22 at 09:00 UTC


212258Z 2200/2209 24012KT 9999 SCT004 BKN015
TEMPO 2200/2209 4000 RADZ BR BKN003
PROB30
TEMPO 2200/2209 1400 BKN001
PROB40
TEMPO 2206/2209 20015G25KT
ATIS : +44 1797 322 422



MET'MAP, your aeronautical weather chart ! - Copyright ORBIFLY December 2007 - Disclaimer

ORBIFLY MET'MAP TEAM :

Programming & Development : Alexandra Zaïnal
Original concept : Baudouin d'Aumeries
Technical & hardware support : Manuel Goepfert
Assistance : Marc-Olivier Méhu




SOURCES & CREDITS :

   NOAA